Terminal Aerodrome Forecast
Issued by NWS North Platte, NE

Home | Current Version | Previous Version | Text Only | Print | Product List | Glossary On
Versions: 1 2 3 4 5 6 7 8 9 10 11 12 13 14 15 16 17 18
000
FTUS43 KLBF 301721
TAFLBF
TAF
KLBF 301721Z 3018/0118 01015G23KT 4SM -RASN BR BKN020 OVC035
     FM302100 01015G22KT 4SM -RASN OVC015
     FM010100 36015G22KT 4SM -RASN BR OVC010
     FM010600 35010G16KT 4SM BR VCSH OVC006
     FM011500 36012KT P6SM OVC012=

USA.gov is the U.S. government's official web portal to all federal, state and local government web resources and services.